Time;durP1;ratioP1;P1;durP2;ratioP2;P2;SDS_P1;SDS_P2;PMS_P1;PMS_P2;Temp;Humidity;BMP_temperature;BMP_pressure;BME280_temperature;BME280_humidity;BME280_pressure;Samples;Min_cycle;Max_cycle;Signal;HPM_P1;HPM_P2
2022/05/08 00:02:27;;;;;;;9.15;6.78;;;14.70;98.70;;;14.64;100.00;101008.81;4988918;28;20035;-73
2022/05/08 00:04:54;;;;;;;12.70;7.43;;;15.00;98.90;;;14.56;100.00;101020.53;4988980;28;20081;-72
2022/05/08 00:07:22;;;;;;;9.63;6.65;;;14.60;98.80;;;14.56;100.00;101023.19;4989757;28;20101;-72
2022/05/08 00:09:49;;;;;;;7.22;5.95;;;14.60;99.00;;;14.58;100.00;101010.75;5003268;28;20058;-73
2022/05/08 00:12:18;;;;;;;7.43;5.60;;;14.50;99.30;;;14.54;100.00;101018.84;4989130;28;20820;-72
2022/05/08 00:14:45;;;;;;;6.40;5.63;;;14.50;99.20;;;14.52;100.00;101010.06;4971493;28;20046;-72
2022/05/08 00:17:13;;;;;;;8.55;5.60;;;14.50;99.20;;;14.49;100.00;101008.38;4989357;28;20049;-73
2022/05/08 00:19:47;;;;;;;6.20;4.80;;;14.40;99.30;;;14.53;100.00;101015.34;5002300;28;20034;-72
2022/05/08 00:22:15;;;;;;;7.25;4.70;;;14.40;99.20;;;14.49;100.00;101016.31;4988852;28;20108;-72
2022/05/08 00:25:03;;;;;;;9.13;4.30;;;14.40;98.90;;;14.38;100.00;101013.16;4986557;28;20054;-72
2022/05/08 00:27:30;;;;;;;7.00;5.30;;;14.40;99.00;;;14.35;100.00;101016.75;4987403;28;20459;-72
2022/05/08 00:29:57;;;;;;;5.90;4.90;;;14.50;99.00;;;14.33;100.00;101014.13;4987823;28;20046;-73
2022/05/08 00:32:25;;;;;;;6.25;5.65;;;14.30;98.70;;;14.33;100.00;101018.56;5003394;28;20060;-73
2022/05/08 00:34:52;;;;;;;11.23;5.90;;;14.30;99.00;;;14.24;100.00;101018.81;5003382;28;20525;-72
2022/05/08 00:37:19;;;;;;;6.25;5.65;;;14.20;99.00;;;14.11;100.00;101010.38;5004132;28;20042;-74
2022/05/08 00:39:46;;;;;;;8.38;5.88;;;14.40;99.20;;;14.09;100.00;101022.78;5002449;28;20046;-72
2022/05/08 00:42:18;;;;;;;8.05;6.18;;;14.10;99.40;;;13.81;100.00;101021.75;4988730;28;20035;-72
2022/05/08 00:44:47;;;;;;;8.05;6.05;;;14.00;99.20;;;13.72;100.00;101022.88;5003337;28;20434;-72
2022/05/08 00:47:14;;;;;;;6.32;5.30;;;14.10;99.30;;;13.85;100.00;101020.78;5003310;28;20050;-72
2022/05/08 00:49:41;;;;;;;7.72;5.90;;;13.90;99.00;;;13.81;100.00;101032.34;4987500;28;20050;-72
2022/05/08 00:52:14;;;;;;;7.28;5.53;;;14.10;99.50;;;13.79;100.00;101028.88;4988873;28;20042;-72
2022/05/08 00:54:41;;;;;;;6.10;5.47;;;13.80;99.50;;;13.64;100.00;101029.28;4988184;28;20046;-72
2022/05/08 00:57:10;;;;;;;7.97;6.60;;;13.80;99.70;;;13.53;100.00;101029.56;5003201;28;20046;-72
2022/05/08 00:59:37;;;;;;;8.05;5.88;;;13.70;99.70;;;13.49;100.00;101023.47;5002921;28;20039;-72
2022/05/08 01:02:04;;;;;;;6.57;5.88;;;13.60;99.80;;;13.44;100.00;101030.66;4988535;28;20065;-72
2022/05/08 01:04:31;;;;;;;5.65;4.78;;;13.50;99.90;;;13.44;100.00;101025.38;4987875;28;20050;-72
2022/05/08 01:06:58;;;;;;;6.63;5.10;;;13.50;99.90;;;13.32;100.00;101014.16;4986905;28;20042;-73
2022/05/08 01:09:25;;;;;;;7.50;5.53;;;13.50;99.90;;;13.27;100.00;101023.16;4975937;28;20441;-73
2022/05/08 01:11:54;;;;;;;5.47;4.93;;;13.40;99.80;;;13.20;100.00;101027.72;4976941;28;20038;-72
2022/05/08 01:14:22;;;;;;;6.45;5.82;;;13.40;99.90;;;13.19;100.00;101031.25;4986409;28;20062;-72
2022/05/08 01:16:49;;;;;;;7.55;5.53;;;13.30;99.90;;;13.08;100.00;101031.50;4987170;28;20069;-73
2022/05/08 01:19:17;;;;;;;7.75;4.97;;;13.20;99.90;;;13.01;100.00;101030.78;4987150;28;20141;-73
2022/05/08 01:21:44;;;;;;;5.82;5.00;;;13.20;99.90;;;12.99;100.00;101024.66;4988080;28;20038;-73
2022/05/08 01:24:20;;;;;;;7.80;4.72;;;13.10;99.90;;;13.08;100.00;101025.38;5002972;28;20042;-72
2022/05/08 01:26:48;;;;;;;6.43;5.68;;;13.10;99.90;;;12.99;100.00;101023.81;4988030;28;20126;-72
2022/05/08 01:29:17;;;;;;;6.07;4.50;;;13.10;99.90;;;12.82;100.00;101017.16;5002001;28;20507;-72
2022/05/08 01:31:43;;;;;;;5.78;5.10;;;13.00;99.90;;;12.89;100.00;101017.88;4987471;28;20073;-72
2022/05/08 01:34:10;;;;;;;6.50;4.80;;;12.90;99.90;;;12.79;100.00;101013.69;4987825;28;20052;-73
2022/05/08 01:36:38;;;;;;;8.05;5.60;;;12.90;99.90;;;12.84;100.00;101003.88;5002836;28;20464;-73
2022/05/08 01:39:04;;;;;;;5.20;4.70;;;12.90;99.90;;;13.03;100.00;101007.84;4986738;28;20496;-72
2022/05/08 01:41:32;;;;;;;5.18;4.68;;;12.90;99.90;;;13.09;100.00;101009.47;4988053;28;20046;-73
2022/05/08 01:43:59;;;;;;;7.82;5.40;;;13.10;99.90;;;13.22;100.00;101006.53;5002010;28;20411;-73
2022/05/08 01:46:26;;;;;;;6.53;4.72;;;13.00;99.90;;;13.19;100.00;101002.19;4988012;28;20046;-72
2022/05/08 01:48:53;;;;;;;6.85;5.05;;;13.00;99.90;;;12.93;100.00;101001.03;4986728;28;20061;-74
2022/05/08 01:51:22;;;;;;;5.82;5.22;;;13.10;99.90;;;13.10;100.00;100999.78;5002719;28;20049;-73
2022/05/08 01:53:49;;;;;;;5.60;5.10;;;13.00;99.90;;;12.95;100.00;100998.34;4987499;28;20074;-73
2022/05/08 01:56:19;;;;;;;9.45;5.38;;;13.10;99.90;;;12.78;100.00;100999.63;4987689;28;20411;-72
2022/05/08 01:58:48;;;;;;;6.28;5.20;;;13.00;99.90;;;12.66;100.00;100998.13;4985307;28;20133;-73
2022/05/08 02:01:15;;;;;;;8.73;5.45;;;13.60;99.90;;;12.77;100.00;100988.19;4987910;28;20043;-73
2022/05/08 02:03:44;;;;;;;5.43;5.00;;;12.80;99.90;;;12.80;100.00;101000.47;4987362;28;20070;-72
2022/05/08 02:06:13;;;;;;;5.32;4.82;;;12.80;99.90;;;12.76;100.00;100993.50;5002646;28;20591;-72
2022/05/08 02:08:41;;;;;;;6.18;5.47;;;12.80;99.90;;;12.74;100.00;101006.75;5002046;28;20109;-72
2022/05/08 02:11:08;;;;;;;7.13;5.13;;;13.40;99.90;;;12.84;100.00;101010.06;4987092;28;20047;-72
2022/05/08 02:13:35;;;;;;;6.57;5.35;;;12.80;99.90;;;12.72;100.00;101011.22;4985424;28;20451;-73
2022/05/08 02:16:02;;;;;;;7.40;5.20;;;12.80;99.90;;;12.66;100.00;101007.84;4987213;28;20049;-73
2022/05/08 02:18:29;;;;;;;6.80;5.43;;;12.80;99.90;;;12.61;100.00;101011.44;4986224;28;20070;-72
2022/05/08 02:20:56;;;;;;;8.55;5.57;;;12.70;99.90;;;12.45;100.00;101007.38;4986712;28;20042;-72
2022/05/08 02:23:23;;;;;;;5.85;4.90;;;13.10;99.90;;;12.47;100.00;101014.38;4988116;28;20042;-72
2022/05/08 02:25:50;;;;;;;10.63;6.47;;;13.20;99.90;;;12.34;100.00;101019.06;4987626;28;20054;-72
2022/05/08 02:28:17;;;;;;;10.40;6.10;;;13.10;99.90;;;12.37;100.00;101018.13;4989452;28;20053;-72
2022/05/08 02:30:44;;;;;;;10.30;6.10;;;12.60;99.90;;;12.31;100.00;101018.25;4984136;28;20419;-73
2022/05/08 02:33:11;;;;;;;7.97;6.20;;;12.50;99.90;;;12.32;100.00;101022.63;4991331;28;20057;-73
2022/05/08 02:35:38;;;;;;;8.32;6.50;;;12.40;99.90;;;12.36;100.00;101018.16;4990808;28;20422;-73
2022/05/08 02:38:05;;;;;;;8.27;6.57;;;12.40;99.80;;;12.36;100.00;101018.16;4990882;28;20523;-73
2022/05/08 02:40:32;;;;;;;8.35;5.80;;;12.40;99.80;;;12.22;100.00;101016.69;4990038;28;20074;-72
2022/05/08 02:42:59;;;;;;;10.43;5.68;;;12.40;99.90;;;12.07;100.00;101012.56;4991341;28;20043;-72
2022/05/08 02:45:26;;;;;;;6.22;5.15;;;12.30;99.90;;;12.12;100.00;101028.31;4989131;28;20053;-72
2022/05/08 02:47:53;;;;;;;8.38;5.15;;;12.30;99.90;;;12.08;100.00;101024.84;4988295;28;20053;-73
2022/05/08 02:50:21;;;;;;;5.90;5.25;;;12.20;99.90;;;12.04;100.00;101028.44;4988711;28;20805;-73
2022/05/08 02:52:49;;;;;;;5.15;4.65;;;12.20;99.90;;;11.98;100.00;101029.41;4990866;28;20050;-73
2022/05/08 03:00:49;;;;;;;7.13;5.10;;;12.00;99.90;;;11.72;100.00;101036.06;4989059;28;20052;-72
2022/05/08 03:03:16;;;;;;;7.15;4.90;;;11.90;99.90;;;11.75;100.00;101043.03;4988424;28;20038;-72
2022/05/08 03:05:45;;;;;;;5.82;4.80;;;11.90;99.90;;;11.72;100.00;101037.81;4990508;28;20056;-72
2022/05/08 03:08:15;;;;;;;6.63;4.95;;;11.90;99.90;;;11.71;100.00;101041.34;5005352;28;20459;-73
2022/05/08 03:13:29;;;;;;;7.05;4.13;;;12.10;99.90;;;11.54;100.00;101047.78;4990067;28;20058;-72
2022/05/08 03:15:55;;;;;;;6.00;4.80;;;11.70;99.90;;;11.59;100.00;101055.63;4990472;28;20057;-73
2022/05/08 03:18:23;;;;;;;5.57;5.07;;;11.70;99.90;;;11.59;100.00;101055.63;4990120;28;20054;-72
2022/05/08 03:20:49;;;;;;;5.38;4.82;;;12.40;99.90;;;11.44;100.00;101054.09;4989651;28;20046;-73
2022/05/08 03:23:17;;;;;;;5.28;4.78;;;11.90;99.90;;;11.40;100.00;101055.03;5001644;28;20053;-72
2022/05/08 03:25:44;;;;;;;6.15;4.88;;;11.70;99.90;;;11.49;100.00;101060.19;5004956;28;20516;-73
2022/05/08 03:28:15;;;;;;;7.07;5.05;;;12.70;99.90;;;11.50;100.00;101061.91;4989669;28;20545;-73
2022/05/08 03:30:43;;;;;;;5.57;4.82;;;11.60;99.90;;;11.50;100.00;101059.28;5004045;28;20447;-72
2022/05/08 03:33:11;;;;;;;5.35;4.80;;;11.60;99.90;;;11.37;100.00;101058.59;5004860;28;20061;-72
2022/05/08 03:35:40;;;;;;;5.15;4.53;;;11.60;99.90;;;11.34;100.00;101048.09;5004773;28;20053;-72
2022/05/08 03:38:07;;;;;;;6.53;5.03;;;11.60;99.90;;;11.42;100.00;101053.25;4988477;28;20125;-72
2022/05/08 03:40:36;;;;;;;7.55;4.70;;;11.50;99.90;;;11.40;100.00;101061.19;5004282;28;20042;-72
2022/05/08 03:43:04;;;;;;;7.03;4.53;;;11.50;99.90;;;11.31;100.00;101056.91;4989648;28;20531;-72
2022/05/08 03:45:31;;;;;;;6.05;5.13;;;11.50;99.90;;;11.23;100.00;101061.47;4989696;28;20045;-73
2022/05/08 03:47:59;;;;;;;5.82;5.18;;;11.50;99.90;;;11.32;100.00;101060.44;5004100;28;20073;-72
2022/05/08 03:50:27;;;;;;;5.45;4.95;;;11.40;99.90;;;11.18;100.00;101056.25;4988857;28;20054;-72
2022/05/08 03:52:58;;;;;;;5.40;4.35;;;11.40;99.90;;;11.12;100.00;101060.75;5004642;28;20104;-72
2022/05/08 03:55:25;;;;;;;5.72;5.05;;;11.30;99.90;;;11.05;100.00;101049.44;5003289;28;20054;-72
2022/05/08 03:57:53;;;;;;;5.82;4.45;;;11.30;99.90;;;11.14;100.00;101058.94;4989640;28;20057;-72
2022/05/08 04:00:20;;;;;;;6.35;4.13;;;11.30;99.90;;;10.99;100.00;101062.69;5002364;28;20066;-72
2022/05/08 04:02:48;;;;;;;5.40;4.75;;;11.20;99.90;;;10.96;100.00;101063.59;4987944;28;20124;-72
2022/05/08 04:05:15;;;;;;;5.32;4.82;;;11.20;99.90;;;10.89;100.00;101062.81;4989268;28;20050;-72
2022/05/08 04:07:42;;;;;;;5.35;4.68;;;11.10;99.90;;;10.84;100.00;101061.16;5004650;28;20442;-73
2022/05/08 04:10:09;;;;;;;5.60;5.10;;;11.50;99.90;;;10.86;100.00;101062.03;5003220;28;20046;-73
2022/05/08 04:12:36;;;;;;;5.43;4.90;;;11.10;99.90;;;10.89;100.00;101061.97;4989837;28;20054;-73
2022/05/08 04:16:15;;;;;;;7.50;4.72;;;11.00;99.90;;;10.96;100.00;101066.25;4988999;28;20072;-73
2022/05/08 04:18:19;;;;;;;5.75;5.05;;;11.10;99.90;;;10.74;100.00;101057.78;4988411;28;20042;-72
2022/05/08 04:20:46;;;;;;;7.85;4.47;;;11.10;99.90;;;10.80;100.00;101062.09;4988594;28;20049;-73
2022/05/08 04:26:01;;;;;;;8.18;4.75;;;11.00;99.90;;;10.85;100.00;101073.41;4987119;28;20184;-73
2022/05/08 04:28:40;;;;;;;6.32;4.75;;;10.90;99.90;;;10.81;100.00;101072.59;4987952;28;20126;-73
2022/05/08 04:31:07;;;;;;;5.93;4.72;;;11.00;99.90;;;10.82;100.00;101076.09;4987326;28;20045;-73
2022/05/08 04:33:34;;;;;;;5.18;4.68;;;11.00;99.90;;;10.73;100.00;101080.59;5004062;28;20120;-73
2022/05/08 04:36:01;;;;;;;6.57;4.80;;;11.00;99.90;;;10.84;100.00;101085.72;4988204;28;20038;-73
2022/05/08 04:38:28;;;;;;;5.32;4.55;;;11.00;99.90;;;10.85;100.00;101089.22;5003927;28;20034;-73
2022/05/08 04:40:55;;;;;;;5.90;4.57;;;11.00;99.90;;;10.78;100.00;101089.31;4987583;28;20038;-73
2022/05/08 04:43:22;;;;;;;7.07;4.38;;;11.00;99.90;;;10.90;100.00;101085.63;4988587;28;20042;-73
2022/05/08 04:45:49;;;;;;;5.20;4.70;;;10.90;99.90;;;10.86;100.00;101083.06;5003753;28;20054;-73
2022/05/08 04:48:16;;;;;;;7.20;4.95;;;11.00;99.90;;;10.86;100.00;101085.72;4988249;28;20054;-73
2022/05/08 04:50:43;;;;;;;6.47;5.13;;;11.00;99.90;;;10.89;100.00;101091.78;5003116;28;20042;-72
2022/05/08 04:53:13;;;;;;;7.18;4.65;;;11.30;99.90;;;10.90;100.00;101085.63;5003303;28;20050;-72
2022/05/08 04:55:40;;;;;;;4.50;4.03;;;11.80;99.90;;;10.88;100.00;101095.31;4971199;28;20062;-73
2022/05/08 04:58:08;;;;;;;5.07;4.57;;;11.00;99.90;;;10.94;100.00;101094.34;4986979;28;20050;-73
2022/05/08 05:00:35;;;;;;;6.32;4.15;;;11.10;99.90;;;10.92;100.00;101096.16;4986582;28;20057;-73
2022/05/08 05:03:03;;;;;;;5.65;4.25;;;11.10;99.90;;;10.91;100.00;101099.66;5003503;28;20052;-73
2022/05/08 05:05:30;;;;;;;5.25;4.75;;;11.10;99.90;;;10.89;100.00;101097.03;5003313;28;20111;-72
2022/05/08 05:07:57;;;;;;;5.20;4.68;;;11.10;99.90;;;10.91;100.00;101099.66;4988433;28;20055;-73
2022/05/08 05:10:24;;;;;;;5.05;4.55;;;11.10;99.90;;;10.90;100.00;101092.66;4984327;28;20046;-73
2022/05/08 05:12:53;;;;;;;6.57;4.60;;;11.10;99.90;;;10.95;100.00;101101.38;4987925;28;20400;-73
2022/05/08 05:15:20;;;;;;;5.27;4.70;;;11.20;99.90;;;10.91;100.00;101103.16;4986159;28;20050;-73
2022/05/08 05:17:49;;;;;;;5.80;5.25;;;11.20;99.90;;;10.94;100.00;101104.03;4987996;28;20061;-72
2022/05/08 05:20:16;;;;;;;6.07;4.78;;;11.20;99.90;;;11.00;100.00;101106.56;4986140;28;20089;-72
2022/05/08 05:22:43;;;;;;;5.97;4.55;;;11.30;99.90;;;10.96;100.00;101113.63;4988252;28;20038;-73
2022/05/08 05:25:10;;;;;;;6.10;4.80;;;11.20;99.90;;;11.13;100.00;101120.44;5002966;28;20046;-72
2022/05/08 05:27:37;;;;;;;5.90;4.75;;;11.20;99.90;;;11.25;100.00;101117.63;4987113;28;20065;-73
2022/05/08 05:30:05;;;;;;;5.75;5.15;;;11.80;99.90;;;11.38;100.00;101118.28;4987124;28;20047;-73
2022/05/08 05:32:32;;;;;;;6.82;6.03;;;11.30;99.90;;;11.45;100.00;101124.34;4988046;28;20050;-72
2022/05/08 05:34:59;;;;;;;6.93;6.20;;;11.40;99.90;;;11.49;100.00;101118.16;4987249;28;20558;-72
2022/05/08 05:37:26;;;;;;;8.32;6.80;;;11.50;99.90;;;11.70;100.00;101129.22;4985761;28;20373;-73
2022/05/08 05:39:54;;;;;;;6.22;5.63;;;11.80;99.90;;;11.74;100.00;101123.88;4986741;28;20137;-73
2022/05/08 05:42:21;;;;;;;5.97;5.47;;;11.60;99.90;;;11.89;100.00;101127.16;4970468;28;20054;-73
2022/05/08 05:44:48;;;;;;;5.63;5.10;;;12.20;99.90;;;11.97;100.00;101129.66;4987454;28;20050;-72
2022/05/08 05:50:00;;;;;;;6.45;5.40;;;11.90;99.90;;;12.15;100.00;101124.09;4986690;28;20097;-73
2022/05/08 05:52:28;;;;;;;7.90;5.55;;;12.00;99.90;;;12.28;100.00;101130.00;4988108;28;20042;-73
2022/05/08 05:54:55;;;;;;;7.35;5.70;;;12.10;99.90;;;12.41;100.00;101128.00;4985998;28;20415;-72
2022/05/08 05:57:22;;;;;;;6.93;5.88;;;12.30;99.90;;;12.46;100.00;101130.53;5003050;28;20048;-73
2022/05/08 05:59:49;;;;;;;7.32;6.50;;;12.40;99.90;;;12.58;100.00;101134.72;4986612;28;20042;-73
2022/05/08 06:02:16;;;;;;;9.10;6.90;;;12.50;99.90;;;12.69;100.00;101138.00;4985671;28;20399;-72
2022/05/08 06:04:43;;;;;;;7.15;6.43;;;12.50;99.90;;;12.73;100.00;101133.53;4985639;28;20117;-72
2022/05/08 06:07:10;;;;;;;9.02;6.85;;;12.60;99.90;;;12.85;100.00;101130.63;4987391;28;20061;-73
2022/05/08 06:09:38;;;;;;;6.65;6.05;;;12.60;99.90;;;12.94;100.00;101132.19;4986417;28;20057;-73
2022/05/08 06:12:06;;;;;;;8.30;7.50;;;12.90;99.90;;;12.98;100.00;101136.50;4985341;28;20056;-74
2022/05/08 06:14:33;;;;;;;7.55;6.82;;;12.80;99.90;;;13.07;100.00;101138.06;4986085;28;20590;-73
2022/05/08 06:17:00;;;;;;;10.38;6.78;;;12.80;99.90;;;13.19;100.00;101137.81;4987406;28;20050;-73
2022/05/08 06:19:27;;;;;;;7.25;6.55;;;12.90;99.90;;;13.29;100.00;101140.25;4986743;28;20047;-74
2022/05/08 06:21:54;;;;;;;10.15;7.60;;;13.00;99.90;;;13.33;100.00;101140.13;4987708;28;20406;-74
2022/05/08 06:24:21;;;;;;;9.13;7.20;;;13.30;99.90;;;13.41;100.00;101142.59;4987264;28;20133;-73
2022/05/08 06:26:49;;;;;;;7.78;7.07;;;13.20;99.90;;;13.54;100.00;101135.28;4985925;28;20573;-73
2022/05/08 06:29:16;;;;;;;10.05;8.73;;;13.30;99.90;;;13.65;100.00;101148.25;4986668;28;20046;-73
2022/05/08 06:31:46;;;;;;;10.63;9.50;;;13.40;99.90;;;13.76;100.00;101140.03;5002106;28;20074;-75
2022/05/08 06:34:18;;;;;;;11.82;10.57;;;13.60;99.90;;;13.90;100.00;101137.06;4985261;28;20070;-76
2022/05/08 06:36:46;;;;;;;12.15;10.95;;;13.60;99.90;;;13.99;100.00;101141.25;4966915;28;20047;-76
2022/05/08 06:39:13;;;;;;;11.70;10.50;;;13.70;99.90;;;14.04;100.00;101145.47;4978451;28;20038;-76
2022/05/08 06:41:41;;;;;;;11.90;10.68;;;13.80;99.90;;;14.15;100.00;101147.88;4970223;28;20058;-77
2022/05/08 06:44:11;;;;;;;12.48;10.25;;;13.80;99.90;;;14.26;100.00;101152.88;4985940;28;20096;-76
2022/05/08 06:46:38;;;;;;;12.05;10.85;;;14.90;99.90;;;14.38;100.00;101149.00;4970254;28;20548;-76
2022/05/08 06:49:06;;;;;;;12.15;10.80;;;14.10;99.90;;;14.50;100.00;101150.44;4970473;28;20069;-77
2022/05/08 06:51:35;;;;;;;12.75;11.45;;;14.20;99.90;;;14.64;100.00;101154.47;4971250;28;20047;-77
2022/05/08 06:54:02;;;;;;;13.00;11.52;;;14.30;99.90;;;14.76;100.00;101161.25;4987544;28;20055;-76
2022/05/08 06:56:34;;;;;;;10.95;9.82;;;14.40;99.90;;;14.81;100.00;101156.69;4969743;28;20057;-77
2022/05/08 07:01:51;;;;;;;11.10;10.10;;;14.60;99.90;;;14.97;100.00;101152.69;4986247;28;20047;-77
2022/05/08 07:04:18;;;;;;;11.82;10.57;;;14.70;99.90;;;15.08;100.00;101154.16;4986022;28;20039;-76
2022/05/08 07:06:45;;;;;;;11.07;10.07;;;14.80;99.90;;;15.17;100.00;101156.50;4999995;28;20460;-76
2022/05/08 07:09:15;;;;;;;11.60;10.50;;;14.90;99.90;;;15.28;100.00;101156.16;4986683;28;20715;-77
2022/05/08 07:11:47;;;;;;;11.82;10.02;;;14.90;99.90;;;15.32;100.00;101158.66;4987390;28;20049;-76
2022/05/08 07:14:16;;;;;;;11.43;10.27;;;15.00;99.90;;;15.42;100.00;101169.00;4989886;28;20073;-76
2022/05/08 07:16:44;;;;;;;12.23;10.30;;;15.10;99.90;;;15.44;100.00;101167.16;4986133;28;20050;-76
2022/05/08 07:19:11;;;;;;;15.32;10.10;;;15.20;99.90;;;15.52;100.00;101158.97;4989343;28;20038;-76
2022/05/08 07:21:39;;;;;;;12.52;11.32;;;15.30;99.90;;;15.58;100.00;101164.94;4972611;28;20757;-76
2022/05/08 07:24:06;;;;;;;11.93;10.63;;;15.30;99.90;;;15.61;100.00;101161.34;5005054;28;20042;-75
2022/05/08 07:26:33;;;;;;;10.75;9.85;;;15.30;99.90;;;15.69;100.00;101167.25;5005296;28;20133;-75
2022/05/08 07:29:00;;;;;;;14.30;10.18;;;15.40;99.90;;;15.80;100.00;101171.34;4989984;28;20050;-76
2022/05/08 07:31:28;;;;;;;12.02;9.90;;;15.70;99.90;;;15.90;100.00;101167.47;4989266;28;20047;-76
2022/05/08 07:36:43;;;;;;;11.43;10.27;;;15.60;99.90;;;16.08;100.00;101167.75;5002841;28;20132;-76
2022/05/08 07:39:10;;;;;;;12.57;11.23;;;15.80;99.90;;;16.12;100.00;101177.38;5004780;28;20069;-76
2022/05/08 07:41:37;;;;;;;11.10;10.00;;;15.80;99.90;;;16.18;100.00;101173.66;5005244;28;20038;-74
2022/05/08 07:44:04;;;;;;;11.80;10.60;;;15.90;99.90;;;16.24;100.00;101171.66;4972810;28;20043;-75
2022/05/08 07:46:31;;;;;;;10.25;9.18;;;15.90;99.90;;;16.33;100.00;101167.78;4988454;28;20121;-75
2022/05/08 07:48:58;;;;;;;11.52;10.23;;;16.00;99.90;;;16.40;100.00;101171.94;4985650;28;20061;-75
2022/05/08 07:51:25;;;;;;;10.70;9.60;;;16.10;99.90;;;16.53;100.00;101167.06;4972982;28;20073;-75
2022/05/08 07:53:52;;;;;;;9.98;8.98;;;16.20;99.90;;;16.56;100.00;101168.75;4988580;28;20057;-75
2022/05/08 07:56:19;;;;;;;9.82;8.73;;;16.20;99.90;;;16.66;100.00;101179.91;4988607;28;20046;-75
2022/05/08 07:58:46;;;;;;;10.25;9.25;;;16.30;99.90;;;16.76;100.00;101183.06;4972195;28;20042;-75
2022/05/08 08:01:14;;;;;;;10.48;9.48;;;16.30;99.80;;;16.79;100.00;101177.69;4990101;28;20054;-76
2022/05/08 08:03:41;;;;;;;10.23;9.23;;;16.40;99.60;;;16.83;100.00;101173.97;4990363;28;20535;-75
2022/05/08 08:06:08;;;;;;;9.95;8.45;;;16.50;99.50;;;16.94;100.00;101182.41;4990124;28;20125;-75
2022/05/08 08:08:39;;;;;;;11.70;9.27;;;16.60;99.40;;;17.03;100.00;101172.38;4990055;28;20163;-75
2022/05/08 08:11:07;;;;;;;10.60;9.20;;;16.70;99.50;;;17.12;100.00;101182.66;4986343;28;20098;-75
2022/05/08 08:13:35;;;;;;;9.40;8.48;;;16.90;99.60;;;17.21;100.00;101187.59;4985200;28;20050;-75
2022/05/08 08:16:08;;;;;;;11.38;9.23;;;16.90;99.50;;;17.24;100.00;101187.47;4984371;28;20047;-75
2022/05/08 08:18:37;;;;;;;9.82;8.93;;;17.00;99.10;;;17.36;100.00;101182.63;4985025;28;20122;-75
2022/05/08 08:21:13;;;;;;;10.50;8.48;;;17.00;99.20;;;17.47;100.00;101177.75;4984694;28;20042;-75
2022/05/08 08:23:42;;;;;;;8.82;7.93;;;17.10;99.10;;;17.58;100.00;101183.50;4984715;28;20051;-76
2022/05/08 08:26:11;;;;;;;9.18;7.90;;;17.20;98.50;;;17.69;100.00;101185.72;4988941;28;20137;-76
2022/05/08 08:28:38;;;;;;;8.80;7.97;;;17.30;98.80;;;17.75;100.00;101195.25;4976043;28;20520;-75
2022/05/08 08:31:10;;;;;;;12.75;8.35;;;17.40;98.80;;;17.81;100.00;101176.34;4972004;28;20423;-76
2022/05/08 08:33:39;;;;;;;8.30;7.45;;;17.40;98.70;;;17.90;100.00;101187.56;4988467;28;20470;-75
2022/05/08 08:36:09;;;;;;;8.93;6.78;;;17.50;98.40;;;17.97;100.00;101181.03;4972629;28;20053;-75
2022/05/08 08:38:38;;;;;;;7.10;6.40;;;17.60;98.00;;;18.04;100.00;101187.00;4988459;28;20121;-75
2022/05/08 08:41:07;;;;;;;7.13;6.43;;;17.70;98.00;;;18.13;100.00;101187.47;4989496;28;20042;-75
2022/05/08 08:49:25;;;;;;;8.13;5.85;;;18.00;97.40;;;18.64;100.00;101180.88;4988447;28;20046;-76
2022/05/08 08:51:53;;;;;;;8.75;6.88;;;18.10;97.70;;;18.75;100.00;101186.59;4989666;28;20128;-75
2022/05/08 08:54:21;;;;;;;7.97;6.13;;;18.20;97.30;;;18.79;100.00;101179.28;4989210;28;20050;-76
2022/05/08 08:56:49;;;;;;;7.32;6.63;;;18.30;96.70;;;18.91;100.00;101183.22;4991682;28;20570;-76
2022/05/08 08:59:23;;;;;;;8.77;7.07;;;18.40;96.90;;;18.95;100.00;101190.13;5005150;28;20558;-76
2022/05/08 09:01:50;;;;;;;7.22;6.47;;;18.50;96.70;;;19.01;100.00;101189.00;5007373;28;20463;-76
2022/05/08 09:04:20;;;;;;;7.88;7.07;;;18.70;96.30;;;18.90;100.00;101189.50;5006469;28;20046;-76
2022/05/08 09:06:48;;;;;;;7.45;6.65;;;18.80;95.90;;;19.08;100.00;101183.31;4988622;28;20050;-78
2022/05/08 09:09:28;;;;;;;6.28;5.68;;;18.80;96.20;;;19.32;100.00;101183.09;4989471;28;20118;-77
2022/05/08 09:11:57;;;;;;;8.05;7.25;;;18.90;96.40;;;19.34;100.00;101188.34;4988321;28;20610;-76
2022/05/08 09:14:42;;;;;;;8.38;7.20;;;19.00;96.00;;;19.39;100.00;101186.31;4990109;28;20050;-76
2022/05/08 09:17:09;;;;;;;7.65;6.63;;;18.90;96.30;;;19.48;100.00;101191.22;4990018;28;20571;-77
2022/05/08 09:19:39;;;;;;;9.10;5.93;;;19.10;96.00;;;19.80;100.00;101193.22;5008223;28;20089;-77
2022/05/08 09:22:12;;;;;;;9.38;6.47;;;19.20;95.90;;;19.84;100.00;101195.69;5005619;28;20096;-76
2022/05/08 09:24:54;;;;;;;9.02;8.07;;;19.40;95.90;;;19.68;100.00;101186.72;4989287;28;20046;-76
2022/05/08 09:27:22;;;;;;;8.73;7.03;;;19.40;95.30;;;19.73;100.00;101179.31;4989625;28;20042;-75
2022/05/08 09:30:05;;;;;;;10.02;7.40;;;19.40;95.50;;;19.74;100.00;101183.72;4989602;28;20065;-79
2022/05/08 09:32:42;;;;;;;6.50;5.90;;;19.80;95.20;;;19.95;100.00;101184.47;5008372;28;20118;-78
2022/05/08 09:35:09;;;;;;;8.25;6.72;;;19.60;95.50;;;20.04;100.00;101185.81;4992586;28;20061;-77
2022/05/08 09:37:53;;;;;;;9.73;5.88;;;19.70;95.40;;;20.19;100.00;101178.84;5008916;28;20057;-79
2022/05/08 09:40:21;;;;;;;8.13;5.95;;;19.70;95.20;;;20.25;99.29;101172.31;4991546;28;20082;-76
2022/05/08 09:42:48;;;;;;;7.63;6.32;;;19.90;95.00;;;20.34;95.64;101170.97;4989281;28;20058;-78
2022/05/08 09:45:16;;;;;;;6.82;5.55;;;19.90;94.60;;;20.47;93.74;101166.72;5003199;28;20046;-77
2022/05/08 09:47:44;;;;;;;7.72;5.85;;;20.00;94.50;;;20.59;94.64;101164.31;4988598;28;20050;-78
2022/05/08 09:50:13;;;;;;;6.13;5.28;;;20.10;94.50;;;20.74;88.87;101163.47;5005090;28;20053;-77
2022/05/08 09:52:42;;;;;;;6.35;5.72;;;20.20;94.10;;;20.73;93.03;101169.78;5003525;28;20049;-77
2022/05/08 09:55:13;;;;;;;7.00;5.30;;;20.30;94.30;;;20.74;81.42;101152.78;4992189;28;20046;-78
2022/05/08 09:57:41;;;;;;;7.40;4.72;;;20.30;93.40;;;20.82;79.03;101153.28;5008455;28;20097;-78
2022/05/08 10:00:13;;;;;;;7.00;4.82;;;20.40;93.00;;;20.93;74.20;101160.69;4993842;28;20105;-77
2022/05/08 10:02:45;;;;;;;5.63;5.07;;;20.50;92.60;;;20.95;76.68;101158.81;4983245;28;20043;-77
2022/05/08 10:05:13;;;;;;;6.28;4.97;;;20.50;92.60;;;21.02;77.62;101161.16;4983607;28;20129;-76
2022/05/08 10:07:41;;;;;;;7.10;5.07;;;20.60;92.70;;;21.18;69.29;101156.66;4966971;28;20043;-75
2022/05/08 10:16:48;;;;;;;5.00;3.90;;;20.90;90.80;;;21.71;62.11;101145.66;4954341;28;20097;-76
2022/05/08 10:19:27;;;;;;;5.30;4.20;;;21.20;90.80;;;21.85;59.96;101146.66;4977656;28;20058;-76
2022/05/08 10:21:56;;;;;;;5.18;4.15;;;21.20;90.20;;;21.92;57.55;101150.69;4985867;28;20043;-80
2022/05/08 10:24:39;;;;;;;8.90;4.72;;;21.40;89.60;;;22.09;58.99;101141.66;4969598;28;20511;-77
2022/05/08 10:27:17;;;;;;;4.65;4.25;;;21.50;90.00;;;22.19;57.21;101144.63;4999091;28;20046;-77
2022/05/08 10:29:50;;;;;;;4.60;4.05;;;21.60;88.90;;;22.42;56.19;101142.38;4986967;28;20146;-80
2022/05/08 10:32:50;;;;;;;4.90;3.80;;;21.80;88.40;;;22.44;56.91;101137.75;4980657;28;20078;-80
2022/05/08 10:35:24;;;;;;;4.85;3.28;;;21.90;88.90;;;22.42;54.21;101134.31;5016661;28;20150;-79
2022/05/08 10:38:01;;;;;;;7.18;3.65;;;22.00;86.70;;;22.44;52.59;101133.25;4971798;28;20117;-79
2022/05/08 10:40:28;;;;;;;5.35;3.58;;;22.00;85.30;;;22.57;51.18;101135.19;4986574;28;20081;-81
2022/05/08 10:42:58;;;;;;;5.47;3.88;;;22.10;84.20;;;22.56;48.88;101134.34;4988618;28;20062;-78
2022/05/08 10:45:33;;;;;;;6.35;3.63;;;22.20;82.40;;;22.72;50.09;101136.06;4992358;28;20614;-79